createdAt,value
2022-10-06T00:00:54.331Z,13.90
2022-10-06T00:03:23.155Z,13.95
2022-10-06T00:05:51.347Z,13.97
2022-10-06T00:08:19.701Z,13.95
2022-10-06T00:10:47.343Z,13.88
2022-10-06T00:13:14.974Z,13.89
2022-10-06T00:15:42.621Z,13.99
2022-10-06T00:18:11.607Z,14.00
2022-10-06T00:20:39.347Z,14.00
2022-10-06T00:23:06.944Z,14.13
2022-10-06T00:25:34.592Z,14.15
2022-10-06T00:28:02.272Z,14.20
2022-10-06T00:30:31.640Z,14.19
2022-10-06T00:33:00.951Z,14.28
2022-10-06T00:35:33.596Z,14.29
2022-10-06T00:38:01.471Z,14.29
2022-10-06T00:40:29.972Z,14.28
2022-10-06T00:42:59.663Z,14.26
2022-10-06T00:45:32.570Z,14.30
2022-10-06T00:48:04.354Z,14.28
2022-10-06T00:50:34.177Z,14.27
2022-10-06T00:53:02.960Z,14.34
2022-10-06T00:55:30.981Z,14.43
2022-10-06T00:57:59.755Z,14.50
2022-10-06T01:00:30.114Z,14.54
2022-10-06T01:03:02.603Z,14.68
2022-10-06T01:05:35.411Z,14.73
2022-10-06T01:08:03.165Z,14.71
2022-10-06T01:10:30.823Z,14.75
2022-10-06T01:12:58.509Z,14.79
2022-10-06T01:15:28.573Z,14.76
2022-10-06T01:18:02.115Z,14.85
2022-10-06T01:20:29.956Z,14.84
2022-10-06T01:23:03.755Z,14.95
2022-10-06T01:25:32.336Z,15.00
2022-10-06T01:28:01.922Z,15.09
2022-10-06T01:30:32.440Z,15.16
2022-10-06T01:33:00.252Z,15.19
2022-10-06T01:35:27.817Z,15.26
2022-10-06T01:37:58.707Z,15.34
2022-10-06T01:40:29.239Z,15.35
2022-10-06T01:42:56.940Z,15.36
2022-10-06T01:45:24.650Z,15.43
2022-10-06T01:47:52.830Z,15.50
2022-10-06T01:50:20.612Z,15.51
2022-10-06T01:52:48.208Z,15.54
2022-10-06T01:55:17.161Z,15.61
2022-10-06T01:57:46.134Z,15.61
2022-10-06T02:00:14.367Z,15.70
2022-10-06T02:02:43.671Z,15.72
2022-10-06T02:05:11.616Z,15.76
2022-10-06T02:07:39.869Z,15.81
2022-10-06T02:10:08.323Z,15.81
2022-10-06T02:12:36.069Z,15.79
2022-10-06T02:15:06.192Z,15.82
2022-10-06T02:17:33.877Z,15.82
2022-10-06T02:20:01.584Z,15.84
2022-10-06T02:22:29.156Z,15.77
2022-10-06T02:24:56.952Z,15.82
2022-10-06T02:27:24.728Z,15.81
2022-10-06T02:29:52.314Z,15.83
2022-10-06T02:32:21.262Z,15.86
2022-10-06T02:34:49.813Z,15.76
2022-10-06T02:37:17.457Z,15.75
2022-10-06T02:39:45.195Z,15.64
2022-10-06T02:42:12.737Z,15.64
2022-10-06T02:44:40.307Z,15.49
2022-10-06T02:47:13.983Z,15.50
2022-10-06T02:49:43.003Z,15.53
2022-10-06T02:52:11.107Z,15.47
2022-10-06T02:54:38.911Z,15.43
2022-10-06T02:57:06.532Z,15.42
2022-10-06T02:59:34.460Z,15.35
2022-10-06T03:02:08.221Z,15.39
2022-10-06T03:04:35.854Z,15.37
2022-10-06T03:07:04.886Z,15.38
2022-10-06T03:09:32.768Z,15.36
2022-10-06T03:12:00.442Z,15.43
2022-10-06T03:14:28.083Z,15.39
2022-10-06T03:16:56.873Z,15.40
2022-10-06T03:19:24.717Z,15.43
2022-10-06T03:21:52.396Z,15.46
2022-10-06T03:24:21.406Z,15.47
2022-10-06T03:26:49.005Z,15.41
2022-10-06T03:29:16.796Z,15.48
2022-10-06T03:31:44.925Z,15.41
2022-10-06T03:34:13.494Z,15.37
2022-10-06T03:36:41.212Z,15.33
2022-10-06T03:39:09.212Z,15.36
2022-10-06T03:41:39.534Z,15.34
2022-10-06T03:44:07.244Z,15.33
2022-10-06T03:46:37.076Z,15.31
2022-10-06T03:49:05.152Z,15.26
2022-10-06T03:51:34.362Z,15.26
2022-10-06T03:54:02.452Z,15.30
2022-10-06T03:56:31.483Z,15.30
2022-10-06T03:59:02.320Z,15.26
2022-10-06T04:01:31.534Z,15.29
2022-10-06T04:04:00.734Z,15.33
2022-10-06T04:06:29.771Z,15.37
2022-10-06T04:08:58.053Z,15.32
2022-10-06T04:11:27.099Z,15.37
2022-10-06T04:13:58.054Z,15.30
2022-10-06T04:16:29.338Z,15.27
2022-10-06T04:18:59.648Z,15.26
2022-10-06T04:21:28.669Z,15.23
2022-10-06T04:23:57.790Z,15.17
2022-10-06T04:26:31.427Z,15.31
2022-10-06T04:29:00.542Z,15.23
2022-10-06T04:31:31.023Z,15.22
2022-10-06T04:33:59.984Z,15.19
2022-10-06T04:36:29.240Z,15.22
2022-10-06T04:38:59.202Z,15.11
2022-10-06T04:41:28.927Z,14.99
2022-10-06T04:43:56.960Z,14.94
2022-10-06T04:46:43.785Z,14.88
2022-10-06T04:49:19.493Z,14.87
2022-10-06T04:51:48.539Z,14.87
2022-10-06T04:54:16.181Z,14.90
2022-10-06T04:56:43.811Z,14.88
2022-10-06T04:59:11.564Z,14.93
2022-10-06T05:01:39.197Z,15.09
2022-10-06T05:04:10.096Z,15.02
2022-10-06T05:06:41.219Z,14.98
2022-10-06T05:09:10.679Z,14.94
2022-10-06T05:11:39.107Z,14.70
2022-10-06T05:14:06.836Z,14.54
2022-10-06T05:16:36.982Z,14.36
2022-10-06T05:19:04.833Z,14.29
2022-10-06T05:21:33.746Z,14.26
2022-10-06T05:24:03.517Z,14.27
2022-10-06T05:26:33.751Z,14.21
2022-10-06T05:29:01.647Z,14.18
2022-10-06T05:31:31.544Z,14.11
2022-10-06T05:34:00.497Z,14.00
2022-10-06T05:36:30.471Z,14.03
2022-10-06T05:38:59.506Z,14.03
2022-10-06T05:41:30.054Z,14.02
2022-10-06T05:43:58.510Z,14.07
2022-10-06T05:46:28.393Z,14.19
2022-10-06T05:48:57.436Z,14.21
2022-10-06T05:51:30.595Z,14.24
2022-10-06T05:53:59.047Z,14.29
2022-10-06T05:56:29.651Z,14.40
2022-10-06T05:58:59.231Z,14.85
2022-10-06T06:01:28.447Z,15.37
2022-10-06T06:03:59.361Z,15.77
2022-10-06T06:06:28.948Z,16.28
2022-10-06T06:08:58.616Z,16.92
2022-10-06T06:11:28.228Z,17.34
2022-10-06T06:13:57.735Z,17.88
2022-10-06T06:16:25.845Z,17.11
2022-10-06T06:18:53.893Z,16.82
2022-10-06T06:21:21.838Z,16.20
2022-10-06T06:23:50.525Z,16.64
2022-10-06T06:26:19.824Z,17.30
2022-10-06T06:28:50.840Z,17.70
2022-10-06T06:31:21.126Z,18.11
2022-10-06T06:33:51.511Z,18.67
2022-10-06T06:36:21.220Z,19.27
2022-10-06T06:38:52.097Z,20.12
2022-10-06T06:41:24.225Z,20.32
2022-10-06T06:43:55.176Z,21.15
2022-10-06T06:46:25.241Z,21.83
2022-10-06T06:48:55.882Z,22.72
2022-10-06T06:51:24.368Z,22.54
2022-10-06T06:53:52.683Z,22.71
2022-10-06T06:56:21.776Z,22.72
2022-10-06T06:58:50.184Z,22.99
2022-10-06T07:01:21.099Z,23.04
2022-10-06T07:03:58.390Z,22.94
2022-10-06T07:06:29.217Z,23.26
2022-10-06T07:08:58.799Z,22.92
2022-10-06T07:11:29.138Z,22.70
2022-10-06T07:13:59.470Z,23.09
2022-10-06T07:16:46.895Z,22.87
2022-10-06T07:19:33.074Z,22.35
2022-10-06T07:22:19.904Z,23.11
2022-10-06T07:25:05.747Z,22.98
2022-10-06T07:27:35.658Z,22.41
2022-10-06T07:30:03.872Z,21.80
2022-10-06T07:32:32.852Z,21.39
2022-10-06T07:35:04.200Z,21.73
2022-10-06T07:37:31.841Z,21.35
2022-10-06T07:40:02.605Z,21.79
2022-10-06T07:42:30.299Z,21.65
2022-10-06T07:45:15.697Z,22.31
2022-10-06T07:47:44.767Z,22.34
2022-10-06T07:50:12.923Z,21.69
2022-10-06T07:52:40.516Z,21.31
2022-10-06T07:55:08.997Z,21.57
2022-10-06T07:57:36.619Z,21.30
2022-10-06T08:00:07.275Z,21.30
2022-10-06T08:02:36.118Z,21.67
2022-10-06T08:05:07.136Z,22.22
2022-10-06T08:07:34.820Z,21.81
2022-10-06T08:10:02.421Z,20.90
2022-10-06T08:12:37.665Z,20.24
2022-10-06T08:15:07.687Z,20.37
2022-10-06T08:17:37.158Z,20.26
2022-10-06T08:20:07.932Z,20.92
2022-10-06T08:22:36.251Z,19.41
2022-10-06T08:25:06.582Z,18.98
2022-10-06T08:27:35.705Z,18.81
2022-10-06T08:30:03.978Z,19.28
2022-10-06T08:32:32.088Z,19.29
2022-10-06T08:34:59.921Z,18.84
2022-10-06T08:37:28.808Z,18.98
2022-10-06T08:39:57.140Z,19.07
2022-10-06T08:42:33.113Z,18.77
2022-10-06T08:45:03.127Z,18.46
2022-10-06T08:47:35.540Z,18.33
2022-10-06T08:50:05.965Z,18.14
2022-10-06T08:52:47.994Z,17.96
2022-10-06T08:55:29.165Z,17.76
2022-10-06T09:00:43.377Z,17.44
2022-10-06T09:03:23.653Z,17.18
2022-10-06T09:05:54.037Z,17.16
2022-10-06T09:08:39.609Z,17.26
2022-10-06T09:11:20.986Z,17.09
2022-10-06T09:13:55.163Z,17.52
2022-10-06T09:16:28.990Z,17.71
2022-10-06T09:19:08.763Z,17.68
2022-10-06T09:21:42.447Z,17.38
2022-10-06T09:24:16.458Z,17.47
2022-10-06T09:26:46.409Z,17.59
2022-10-06T09:29:14.980Z,17.76
2022-10-06T09:31:44.435Z,17.92
2022-10-06T09:34:21.076Z,17.75
2022-10-06T09:37:02.086Z,17.86
2022-10-06T09:39:36.427Z,18.01
2022-10-06T09:42:11.811Z,18.00
2022-10-06T09:44:47.980Z,18.18
2022-10-06T09:47:25.309Z,18.03
2022-10-06T09:50:14.404Z,18.06
2022-10-06T09:52:43.002Z,17.91
2022-10-06T09:55:14.842Z,17.93
2022-10-06T09:57:50.027Z,17.83
2022-10-06T10:00:28.068Z,17.81
2022-10-06T10:02:59.931Z,18.04
2022-10-06T10:05:29.845Z,18.33
2022-10-06T10:08:06.229Z,18.11
2022-10-06T10:10:36.968Z,18.27
2022-10-06T10:13:17.697Z,17.98
2022-10-06T10:15:54.341Z,18.32
2022-10-06T10:18:26.626Z,17.85
2022-10-06T10:20:57.565Z,18.06
2022-10-06T10:23:31.633Z,18.37
2022-10-06T10:26:18.737Z,18.51
2022-10-06T10:29:33.129Z,18.42
2022-10-06T10:32:09.767Z,18.36
2022-10-06T10:34:51.158Z,18.40
2022-10-06T10:37:24.324Z,18.32
2022-10-06T10:39:55.496Z,18.34
2022-10-06T10:42:30.809Z,18.38
2022-10-06T10:45:02.357Z,18.39
2022-10-06T10:47:35.114Z,18.55
2022-10-06T10:50:08.734Z,18.47
2022-10-06T10:52:42.145Z,18.65
2022-10-06T10:55:23.162Z,18.68
2022-10-06T10:57:54.894Z,18.70
2022-10-06T11:00:25.316Z,18.72
2022-10-06T11:02:55.594Z,18.60
2022-10-06T11:05:37.527Z,18.70
2022-10-06T11:08:13.443Z,18.82
2022-10-06T11:10:47.582Z,18.89
2022-10-06T11:13:24.026Z,18.64
2022-10-06T11:16:05.074Z,18.59
2022-10-06T11:18:48.784Z,18.34
2022-10-06T11:21:21.867Z,18.39
2022-10-06T11:23:56.740Z,18.43
2022-10-06T11:26:42.504Z,18.22
2022-10-06T11:29:23.933Z,18.31
2022-10-06T11:32:01.782Z,18.31
2022-10-06T11:34:29.476Z,18.49
2022-10-06T11:37:01.730Z,18.49
2022-10-06T11:39:40.004Z,18.53
2022-10-06T11:42:17.798Z,18.54
2022-10-06T11:44:52.432Z,18.75
2022-10-06T11:47:35.156Z,18.53
2022-10-06T11:50:03.756Z,18.57
2022-10-06T11:52:55.252Z,18.45
2022-10-06T11:55:26.264Z,18.43
2022-10-06T11:58:43.046Z,18.35
2022-10-06T12:01:03.038Z,18.26
2022-10-06T12:04:10.967Z,18.07
2022-10-06T12:06:57.275Z,18.32
2022-10-06T12:09:41.315Z,18.31
2022-10-06T12:13:06.540Z,18.18
2022-10-06T12:19:16.876Z,18.29
2022-10-06T12:22:01.827Z,18.47
2022-10-06T12:24:37.911Z,18.57
2022-10-06T12:27:25.878Z,18.63
2022-10-06T12:29:59.340Z,18.67
2022-10-06T12:32:44.435Z,18.67
2022-10-06T12:35:26.029Z,18.61
2022-10-06T12:37:55.056Z,18.76
2022-10-06T12:40:55.372Z,18.70
2022-10-06T12:43:32.833Z,18.82
2022-10-06T12:46:08.134Z,18.72
2022-10-06T12:48:43.074Z,18.65
2022-10-06T12:51:23.396Z,18.50
2022-10-06T12:53:57.039Z,18.60
2022-10-06T12:56:29.528Z,18.53
2022-10-06T12:58:57.211Z,18.54
2022-10-06T13:01:26.832Z,18.71
2022-10-06T13:03:56.184Z,18.86
2022-10-06T13:06:26.172Z,18.97
2022-10-06T13:09:06.776Z,18.76
2022-10-06T13:11:34.486Z,18.78
2022-10-06T13:14:10.970Z,18.84
2022-10-06T13:16:41.625Z,18.84
2022-10-06T13:19:21.415Z,18.71
2022-10-06T13:21:49.177Z,18.71
2022-10-06T13:24:20.483Z,18.85
2022-10-06T13:26:49.141Z,18.88
2022-10-06T13:29:22.419Z,18.93
2022-10-06T13:31:53.023Z,18.90
2022-10-06T13:34:29.749Z,18.94
2022-10-06T13:36:59.755Z,18.98
2022-10-06T13:39:31.543Z,18.85
2022-10-06T13:42:03.278Z,18.80
2022-10-06T13:44:37.870Z,18.62
2022-10-06T13:47:08.754Z,18.77
2022-10-06T13:49:48.576Z,18.69
2022-10-06T13:52:18.642Z,18.74
2022-10-06T13:54:51.708Z,18.75
2022-10-06T13:57:39.136Z,18.76
2022-10-06T14:00:17.627Z,18.81
2022-10-06T14:02:47.072Z,18.62
2022-10-06T14:05:31.449Z,18.45
2022-10-06T14:08:01.357Z,18.52
2022-10-06T14:10:33.431Z,18.54
2022-10-06T14:13:02.268Z,18.54
2022-10-06T14:15:37.350Z,18.58
2022-10-06T14:18:06.068Z,18.47
2022-10-06T14:20:46.968Z,18.44
2022-10-06T14:23:41.283Z,18.56
2022-10-06T14:26:11.230Z,18.51
2022-10-06T14:28:48.488Z,18.50
2022-10-06T14:31:19.589Z,18.52
2022-10-06T14:33:48.509Z,18.49
2022-10-06T14:36:22.847Z,18.42
2022-10-06T14:38:52.073Z,18.28
2022-10-06T14:41:24.756Z,18.22
2022-10-06T14:43:55.999Z,18.20
2022-10-06T14:46:28.319Z,18.27
2022-10-06T14:48:56.587Z,18.25
2022-10-06T14:51:34.671Z,18.25
2022-10-06T14:54:06.133Z,18.16
2022-10-06T14:56:35.477Z,18.12
2022-10-06T14:59:06.015Z,18.05
2022-10-06T15:01:35.829Z,18.03
2022-10-06T15:04:05.734Z,17.99
2022-10-06T15:06:52.287Z,17.91
2022-10-06T15:09:19.979Z,17.85
2022-10-06T15:11:47.886Z,17.86
2022-10-06T15:14:15.535Z,17.65
2022-10-06T15:16:44.515Z,17.57
2022-10-06T15:19:12.959Z,17.60
2022-10-06T15:21:45.182Z,17.61
2022-10-06T15:24:15.371Z,17.54
2022-10-06T15:27:01.342Z,17.53
2022-10-06T15:29:29.345Z,17.43
2022-10-06T15:31:58.554Z,17.24
2022-10-06T15:34:28.360Z,17.21
2022-10-06T15:36:58.785Z,17.22
2022-10-06T15:39:28.252Z,17.22
2022-10-06T15:41:57.280Z,17.15
2022-10-06T15:44:25.055Z,17.09
2022-10-06T15:46:55.429Z,17.01
2022-10-06T15:49:25.250Z,16.92
2022-10-06T15:51:54.402Z,16.69
2022-10-06T15:54:24.976Z,16.63
2022-10-06T15:56:54.302Z,16.67
2022-10-06T15:59:24.097Z,16.57
2022-10-06T16:01:56.094Z,16.55
2022-10-06T16:04:32.268Z,16.56
2022-10-06T16:07:00.208Z,16.51
2022-10-06T16:09:35.432Z,16.48
2022-10-06T16:12:06.007Z,16.34
2022-10-06T16:14:33.991Z,16.24
2022-10-06T16:17:04.067Z,16.14
2022-10-06T16:19:36.654Z,16.05
2022-10-06T16:22:05.698Z,16.02
2022-10-06T16:24:35.165Z,15.91
2022-10-06T16:27:03.119Z,15.83
2022-10-06T16:29:34.551Z,15.69
2022-10-06T16:32:02.418Z,15.57
2022-10-06T16:34:31.587Z,15.53
2022-10-06T16:36:59.497Z,15.41
2022-10-06T16:39:27.143Z,15.31
2022-10-06T16:41:56.156Z,15.25
2022-10-06T16:44:23.819Z,15.18
2022-10-06T16:46:51.495Z,15.13
2022-10-06T16:49:19.645Z,15.07
2022-10-06T16:51:47.252Z,15.05
2022-10-06T16:54:17.050Z,14.98
2022-10-06T16:56:46.584Z,14.91
2022-10-06T16:59:17.274Z,14.82
2022-10-06T17:01:45.412Z,14.80
2022-10-06T17:04:14.604Z,14.68
2022-10-06T17:06:45.291Z,14.56
2022-10-06T17:09:14.867Z,14.45
2022-10-06T17:11:43.994Z,14.39
2022-10-06T17:14:12.318Z,14.38
2022-10-06T17:16:43.888Z,14.34
2022-10-06T17:19:13.248Z,14.66
2022-10-06T17:21:46.596Z,14.49
2022-10-06T17:24:17.469Z,14.37
2022-10-06T17:26:46.913Z,14.22
2022-10-06T17:29:17.486Z,14.11
2022-10-06T17:31:47.763Z,14.01
2022-10-06T17:34:20.653Z,13.88
2022-10-06T17:36:51.243Z,13.84
2022-10-06T17:39:21.055Z,13.78
2022-10-06T17:41:50.176Z,13.70
2022-10-06T17:44:22.533Z,13.70
2022-10-06T17:46:53.767Z,13.64
2022-10-06T17:49:22.551Z,13.60
2022-10-06T17:51:51.703Z,13.56
2022-10-06T17:54:21.679Z,13.51
2022-10-06T17:56:51.387Z,13.45
2022-10-06T17:59:24.801Z,13.32
2022-10-06T18:01:57.106Z,13.31
2022-10-06T18:04:26.037Z,13.31
2022-10-06T18:06:54.837Z,13.26
2022-10-06T18:09:23.012Z,13.25
2022-10-06T18:11:54.998Z,13.23
2022-10-06T18:14:24.474Z,13.17
2022-10-06T18:16:56.645Z,13.14
2022-10-06T18:19:26.565Z,13.05
2022-10-06T18:21:56.560Z,12.97
2022-10-06T18:24:26.267Z,12.94
2022-10-06T18:26:56.117Z,12.98
2022-10-06T18:29:25.914Z,12.96
2022-10-06T18:32:15.022Z,12.95
2022-10-06T18:37:32.925Z,12.99
2022-10-06T18:40:02.388Z,12.98
2022-10-06T18:42:30.124Z,12.95
2022-10-06T18:45:15.253Z,12.87
2022-10-06T18:48:02.127Z,12.73
2022-10-06T18:50:32.913Z,12.71
2022-10-06T18:53:00.854Z,12.64
2022-10-06T18:55:29.775Z,12.62
2022-10-06T18:57:57.623Z,12.64
2022-10-06T19:00:26.469Z,12.58
2022-10-06T19:02:56.687Z,12.53
2022-10-06T19:05:24.519Z,12.46
2022-10-06T19:07:54.131Z,12.40
2022-10-06T19:10:22.052Z,12.34
2022-10-06T19:12:52.649Z,12.32
2022-10-06T19:15:21.452Z,12.31
2022-10-06T19:17:49.654Z,12.28
2022-10-06T19:20:19.114Z,12.24
2022-10-06T19:22:50.758Z,12.15
2022-10-06T19:25:19.257Z,12.11
2022-10-06T19:27:48.106Z,12.05
2022-10-06T19:30:18.399Z,11.93
2022-10-06T19:32:46.091Z,11.86
2022-10-06T19:35:13.754Z,11.81
2022-10-06T19:37:42.963Z,11.84
2022-10-06T19:40:11.637Z,11.81
2022-10-06T19:42:47.513Z,11.76
2022-10-06T19:45:15.921Z,11.74
2022-10-06T19:47:44.975Z,11.68
2022-10-06T19:50:13.611Z,11.67
2022-10-06T19:52:42.720Z,11.71
2022-10-06T19:55:10.343Z,11.59
2022-10-06T19:57:38.029Z,11.56
2022-10-06T20:00:07.188Z,11.46
2022-10-06T20:02:37.455Z,11.49
2022-10-06T20:05:09.700Z,11.46
2022-10-06T20:07:37.374Z,11.47
2022-10-06T20:10:07.135Z,11.30
2022-10-06T20:12:35.983Z,11.19
2022-10-06T20:15:03.777Z,11.25
2022-10-06T20:17:31.481Z,11.20
2022-10-06T20:19:59.205Z,11.09
2022-10-06T20:22:27.326Z,11.01
2022-10-06T20:24:54.997Z,11.11
2022-10-06T20:27:23.977Z,11.06
2022-10-06T20:29:51.552Z,11.02
2022-10-06T20:32:19.106Z,10.94
2022-10-06T20:34:46.731Z,10.88
2022-10-06T20:37:14.415Z,10.82
2022-10-06T20:39:59.619Z,10.74
2022-10-06T20:42:28.572Z,10.70
2022-10-06T20:44:56.239Z,10.81
2022-10-06T20:47:23.840Z,10.72
2022-10-06T20:49:54.841Z,10.67
2022-10-06T20:52:23.114Z,10.59
2022-10-06T20:54:51.177Z,10.51
2022-10-06T20:57:18.840Z,10.42
2022-10-06T20:59:48.988Z,10.33
2022-10-06T21:02:17.192Z,10.26
2022-10-06T21:04:45.221Z,10.26
2022-10-06T21:07:13.057Z,10.26
2022-10-06T21:09:41.147Z,10.19
2022-10-06T21:12:09.018Z,10.33
2022-10-06T21:14:37.607Z,10.19
2022-10-06T21:17:06.832Z,10.11
2022-10-06T21:19:37.876Z,10.05
2022-10-06T21:22:07.003Z,10.02
2022-10-06T21:24:34.777Z,10.02
2022-10-06T21:27:03.229Z,9.99
2022-10-06T21:29:31.035Z,9.92
2022-10-06T21:31:58.832Z,9.86
2022-10-06T21:34:28.045Z,9.84
2022-10-06T21:36:56.052Z,9.95
2022-10-06T21:39:23.920Z,9.86
2022-10-06T21:41:51.739Z,9.88
2022-10-06T21:44:20.208Z,9.90
2022-10-06T21:46:49.794Z,9.80
2022-10-06T21:49:20.058Z,9.80
2022-10-06T21:51:51.159Z,9.75
2022-10-06T21:54:20.092Z,9.62
2022-10-06T21:56:48.062Z,9.59
2022-10-06T21:59:16.127Z,9.61
2022-10-06T22:01:45.758Z,9.52
2022-10-06T22:04:15.194Z,9.47
2022-10-06T22:06:44.643Z,9.47
2022-10-06T22:09:16.552Z,9.53
2022-10-06T22:11:44.709Z,9.43
2022-10-06T22:14:14.900Z,9.48
2022-10-06T22:16:43.717Z,9.37
2022-10-06T22:19:13.332Z,9.36
2022-10-06T22:21:43.381Z,9.48
2022-10-06T22:24:15.468Z,9.46
2022-10-06T22:26:44.559Z,9.45
2022-10-06T22:29:14.089Z,9.48
2022-10-06T22:31:44.546Z,9.42
2022-10-06T22:34:14.849Z,9.39
2022-10-06T22:36:43.091Z,9.39
2022-10-06T22:39:11.156Z,9.44
2022-10-06T22:41:40.415Z,9.46
2022-10-06T22:44:08.426Z,9.40
2022-10-06T22:46:37.890Z,9.33
2022-10-06T22:49:06.658Z,9.38
2022-10-06T22:51:34.681Z,9.30
2022-10-06T22:54:03.184Z,9.26
2022-10-06T22:56:32.989Z,9.32
2022-10-06T22:59:02.429Z,9.27
2022-10-06T23:01:30.742Z,9.19
2022-10-06T23:03:58.863Z,9.22
2022-10-06T23:06:26.920Z,9.20
2022-10-06T23:08:54.892Z,9.11
2022-10-06T23:11:23.274Z,9.10
2022-10-06T23:13:53.456Z,9.10
2022-10-06T23:16:25.033Z,9.09
2022-10-06T23:18:55.245Z,9.00
2022-10-06T23:21:27.584Z,9.10
2022-10-06T23:23:58.000Z,9.04
2022-10-06T23:26:26.582Z,9.01
2022-10-06T23:28:56.749Z,8.95
2022-10-06T23:31:26.498Z,8.89
2022-10-06T23:33:55.499Z,8.87
2022-10-06T23:36:23.281Z,8.82
2022-10-06T23:38:51.180Z,8.72
2022-10-06T23:41:19.555Z,8.86
2022-10-06T23:43:47.519Z,8.93
2022-10-06T23:46:15.613Z,8.80
2022-10-06T23:48:44.788Z,8.77
2022-10-06T23:51:14.310Z,8.75
2022-10-06T23:53:43.136Z,8.79
2022-10-06T23:56:11.301Z,8.92
2022-10-06T23:58:39.335Z,8.73
